sensor_id;sensor_type;location;lat;lon;timestamp;temperature;humidity
13336;DHT22;6737;51.480;11.962;2022-12-17T00:01:58;-1.80;99.90
13336;DHT22;6737;51.480;11.962;2022-12-17T00:04:42;-1.80;99.90
13336;DHT22;6737;51.480;11.962;2022-12-17T00:07:27;-1.70;99.90
13336;DHT22;6737;51.480;11.962;2022-12-17T00:10:11;-1.70;99.90
13336;DHT22;6737;51.480;11.962;2022-12-17T00:12:55;-1.80;99.90
13336;DHT22;6737;51.480;11.962;2022-12-17T00:15:39;-1.80;99.90
13336;DHT22;6737;51.480;11.962;2022-12-17T00:18:24;-1.80;99.90
13336;DHT22;6737;51.480;11.962;2022-12-17T00:21:09;-1.70;99.90
13336;DHT22;6737;51.480;11.962;2022-12-17T00:23:53;-1.70;99.90
13336;DHT22;6737;51.480;11.962;2022-12-17T00:26:48;-1.80;99.90
13336;DHT22;6737;51.480;11.962;2022-12-17T00:29:32;-1.70;99.90
13336;DHT22;6737;51.480;11.962;2022-12-17T00:32:16;-1.70;99.90
13336;DHT22;6737;51.480;11.962;2022-12-17T00:35:01;-1.70;99.90
13336;DHT22;6737;51.480;11.962;2022-12-17T00:37:45;-1.70;99.90
13336;DHT22;6737;51.480;11.962;2022-12-17T00:40:30;-1.70;99.90
13336;DHT22;6737;51.480;11.962;2022-12-17T00:43:14;-1.80;99.90
13336;DHT22;6737;51.480;11.962;2022-12-17T00:45:59;-1.80;99.90
13336;DHT22;6737;51.480;11.962;2022-12-17T00:48:43;-1.70;99.90
13336;DHT22;6737;51.480;11.962;2022-12-17T00:51:28;-1.70;99.90
13336;DHT22;6737;51.480;11.962;2022-12-17T00:54:13;-1.70;99.90
13336;DHT22;6737;51.480;11.962;2022-12-17T00:56:57;-1.70;99.90
13336;DHT22;6737;51.480;11.962;2022-12-17T00:59:41;-1.70;99.90
13336;DHT22;6737;51.480;11.962;2022-12-17T01:02:26;-1.70;99.90
13336;DHT22;6737;51.480;11.962;2022-12-17T01:05:12;-1.70;99.90
13336;DHT22;6737;51.480;11.962;2022-12-17T01:08:04;-1.70;99.90
13336;DHT22;6737;51.480;11.962;2022-12-17T01:10:49;-1.70;99.90
13336;DHT22;6737;51.480;11.962;2022-12-17T01:13:33;-1.70;99.90
13336;DHT22;6737;51.480;11.962;2022-12-17T01:16:18;-1.70;99.90
13336;DHT22;6737;51.480;11.962;2022-12-17T01:19:02;-1.70;99.90
13336;DHT22;6737;51.480;11.962;2022-12-17T01:21:46;-1.70;99.90
13336;DHT22;6737;51.480;11.962;2022-12-17T01:24:30;-1.70;99.90
13336;DHT22;6737;51.480;11.962;2022-12-17T01:27:15;-1.70;99.90
13336;DHT22;6737;51.480;11.962;2022-12-17T01:29:59;-1.70;99.90
13336;DHT22;6737;51.480;11.962;2022-12-17T01:32:43;-1.70;99.90
13336;DHT22;6737;51.480;11.962;2022-12-17T01:35:27;-1.70;99.90
13336;DHT22;6737;51.480;11.962;2022-12-17T01:38:14;-1.70;99.90
13336;DHT22;6737;51.480;11.962;2022-12-17T01:40:59;-1.70;99.90
13336;DHT22;6737;51.480;11.962;2022-12-17T01:43:44;-1.70;99.90
13336;DHT22;6737;51.480;11.962;2022-12-17T01:46:32;-1.70;99.90
13336;DHT22;6737;51.480;11.962;2022-12-17T01:49:19;-1.70;99.90
13336;DHT22;6737;51.480;11.962;2022-12-17T01:52:04;-1.70;99.90
13336;DHT22;6737;51.480;11.962;2022-12-17T01:54:48;-1.70;99.90
13336;DHT22;6737;51.480;11.962;2022-12-17T01:57:33;-1.70;99.90
13336;DHT22;6737;51.480;11.962;2022-12-17T02:00:18;-1.70;99.90
13336;DHT22;6737;51.480;11.962;2022-12-17T02:03:03;-1.70;99.90
13336;DHT22;6737;51.480;11.962;2022-12-17T02:12:24;-1.70;99.90
13336;DHT22;6737;51.480;11.962;2022-12-17T02:15:45;-1.70;99.90
13336;DHT22;6737;51.480;11.962;2022-12-17T02:18:26;-1.70;99.90
13336;DHT22;6737;51.480;11.962;2022-12-17T02:21:13;-1.70;99.90
13336;DHT22;6737;51.480;11.962;2022-12-17T02:27:01;-1.70;99.90
13336;DHT22;6737;51.480;11.962;2022-12-17T02:29:53;-1.90;99.90
13336;DHT22;6737;51.480;11.962;2022-12-17T02:32:40;-1.90;99.90
13336;DHT22;6737;51.480;11.962;2022-12-17T02:35:37;-1.80;99.90
13336;DHT22;6737;51.480;11.962;2022-12-17T02:38:29;-1.90;99.90
13336;DHT22;6737;51.480;11.962;2022-12-17T02:41:46;-1.90;99.90
13336;DHT22;6737;51.480;11.962;2022-12-17T02:44:33;-1.90;99.90
13336;DHT22;6737;51.480;11.962;2022-12-17T02:47:19;-1.80;99.90
13336;DHT22;6737;51.480;11.962;2022-12-17T02:50:06;-1.80;99.90
13336;DHT22;6737;51.480;11.962;2022-12-17T02:52:51;-1.90;99.90
13336;DHT22;6737;51.480;11.962;2022-12-17T02:55:36;-2.00;99.90
13336;DHT22;6737;51.480;11.962;2022-12-17T02:58:20;-2.00;99.90
13336;DHT22;6737;51.480;11.962;2022-12-17T03:01:05;-2.10;99.90
13336;DHT22;6737;51.480;11.962;2022-12-17T03:03:49;-2.10;99.90
13336;DHT22;6737;51.480;11.962;2022-12-17T03:06:33;-2.20;99.90
13336;DHT22;6737;51.480;11.962;2022-12-17T03:09:17;-2.10;99.90
13336;DHT22;6737;51.480;11.962;2022-12-17T03:12:02;-2.20;99.90
13336;DHT22;6737;51.480;11.962;2022-12-17T03:14:46;-2.20;99.90
13336;DHT22;6737;51.480;11.962;2022-12-17T03:17:30;-2.20;99.90
13336;DHT22;6737;51.480;11.962;2022-12-17T03:20:15;-2.20;99.90
13336;DHT22;6737;51.480;11.962;2022-12-17T03:23:07;-2.30;99.90
13336;DHT22;6737;51.480;11.962;2022-12-17T03:25:52;-2.30;99.90
13336;DHT22;6737;51.480;11.962;2022-12-17T03:28:37;-2.30;99.90
13336;DHT22;6737;51.480;11.962;2022-12-17T03:31:22;-2.30;99.90
13336;DHT22;6737;51.480;11.962;2022-12-17T03:34:06;-2.40;99.90
13336;DHT22;6737;51.480;11.962;2022-12-17T03:36:51;-2.50;99.90
13336;DHT22;6737;51.480;11.962;2022-12-17T03:39:35;-2.60;99.90
13336;DHT22;6737;51.480;11.962;2022-12-17T03:42:19;-2.60;99.90
13336;DHT22;6737;51.480;11.962;2022-12-17T03:45:03;-2.60;99.90
13336;DHT22;6737;51.480;11.962;2022-12-17T03:47:47;-2.70;99.90
13336;DHT22;6737;51.480;11.962;2022-12-17T03:50:31;-2.70;99.90
13336;DHT22;6737;51.480;11.962;2022-12-17T03:53:16;-2.70;99.90
13336;DHT22;6737;51.480;11.962;2022-12-17T03:56:00;-2.70;99.90
13336;DHT22;6737;51.480;11.962;2022-12-17T03:58:44;-2.80;99.90
13336;DHT22;6737;51.480;11.962;2022-12-17T04:01:28;-2.70;99.90
13336;DHT22;6737;51.480;11.962;2022-12-17T04:04:13;-2.80;99.90
13336;DHT22;6737;51.480;11.962;2022-12-17T04:06:57;-2.80;99.90
13336;DHT22;6737;51.480;11.962;2022-12-17T04:09:41;-2.90;99.90
13336;DHT22;6737;51.480;11.962;2022-12-17T04:12:25;-2.90;99.90
13336;DHT22;6737;51.480;11.962;2022-12-17T04:15:09;-2.90;99.90
13336;DHT22;6737;51.480;11.962;2022-12-17T04:17:54;-2.90;99.90
13336;DHT22;6737;51.480;11.962;2022-12-17T04:20:38;-2.90;99.90
13336;DHT22;6737;51.480;11.962;2022-12-17T04:23:24;-3.00;99.90
13336;DHT22;6737;51.480;11.962;2022-12-17T04:26:08;-3.10;99.90
13336;DHT22;6737;51.480;11.962;2022-12-17T04:28:52;-3.10;99.90
13336;DHT22;6737;51.480;11.962;2022-12-17T04:31:36;-3.20;99.90
13336;DHT22;6737;51.480;11.962;2022-12-17T04:34:21;-3.20;99.90
13336;DHT22;6737;51.480;11.962;2022-12-17T04:37:05;-3.20;99.90
13336;DHT22;6737;51.480;11.962;2022-12-17T04:39:49;-3.30;99.90
13336;DHT22;6737;51.480;11.962;2022-12-17T04:42:33;-3.30;99.90
13336;DHT22;6737;51.480;11.962;2022-12-17T04:45:18;-3.40;99.90
13336;DHT22;6737;51.480;11.962;2022-12-17T04:48:06;-3.30;99.90
13336;DHT22;6737;51.480;11.962;2022-12-17T04:50:51;-3.30;99.90
13336;DHT22;6737;51.480;11.962;2022-12-17T04:53:35;-3.30;99.90
13336;DHT22;6737;51.480;11.962;2022-12-17T04:56:20;-3.30;99.90
13336;DHT22;6737;51.480;11.962;2022-12-17T04:59:05;-3.40;99.90
13336;DHT22;6737;51.480;11.962;2022-12-17T05:01:49;-3.50;99.90
13336;DHT22;6737;51.480;11.962;2022-12-17T05:04:33;-3.40;99.90
13336;DHT22;6737;51.480;11.962;2022-12-17T05:07:18;-3.50;99.90
13336;DHT22;6737;51.480;11.962;2022-12-17T05:10:02;-3.60;99.90
13336;DHT22;6737;51.480;11.962;2022-12-17T05:12:47;-3.60;99.90
13336;DHT22;6737;51.480;11.962;2022-12-17T05:15:31;-3.60;99.90
13336;DHT22;6737;51.480;11.962;2022-12-17T05:18:15;-3.70;99.90
13336;DHT22;6737;51.480;11.962;2022-12-17T05:20:59;-3.80;99.90
13336;DHT22;6737;51.480;11.962;2022-12-17T05:23:43;-3.80;99.90
13336;DHT22;6737;51.480;11.962;2022-12-17T05:26:28;-3.80;99.90
13336;DHT22;6737;51.480;11.962;2022-12-17T05:29:12;-3.70;99.90
13336;DHT22;6737;51.480;11.962;2022-12-17T05:31:57;-3.70;99.90
13336;DHT22;6737;51.480;11.962;2022-12-17T05:34:41;-3.80;99.90
13336;DHT22;6737;51.480;11.962;2022-12-17T05:37:25;-3.80;99.90
13336;DHT22;6737;51.480;11.962;2022-12-17T05:40:10;-3.70;99.90
13336;DHT22;6737;51.480;11.962;2022-12-17T05:42:56;-3.70;99.90
13336;DHT22;6737;51.480;11.962;2022-12-17T05:45:41;-3.80;99.90
13336;DHT22;6737;51.480;11.962;2022-12-17T05:48:36;-3.70;99.90
13336;DHT22;6737;51.480;11.962;2022-12-17T05:51:21;-3.50;99.90
13336;DHT22;6737;51.480;11.962;2022-12-17T05:54:06;-3.50;99.90
13336;DHT22;6737;51.480;11.962;2022-12-17T05:56:51;-3.40;99.90
13336;DHT22;6737;51.480;11.962;2022-12-17T05:59:36;-3.40;99.90
13336;DHT22;6737;51.480;11.962;2022-12-17T06:02:21;-3.40;99.90
13336;DHT22;6737;51.480;11.962;2022-12-17T06:05:06;-3.40;99.90
13336;DHT22;6737;51.480;11.962;2022-12-17T06:07:50;-3.50;99.90
13336;DHT22;6737;51.480;11.962;2022-12-17T06:10:34;-3.50;99.90
13336;DHT22;6737;51.480;11.962;2022-12-17T06:13:18;-3.40;99.90
13336;DHT22;6737;51.480;11.962;2022-12-17T06:16:03;-3.30;99.90
13336;DHT22;6737;51.480;11.962;2022-12-17T06:18:47;-3.20;99.90
13336;DHT22;6737;51.480;11.962;2022-12-17T06:21:31;-3.20;99.90
13336;DHT22;6737;51.480;11.962;2022-12-17T06:24:16;-3.10;99.90
13336;DHT22;6737;51.480;11.962;2022-12-17T06:27:00;-3.20;99.90
13336;DHT22;6737;51.480;11.962;2022-12-17T06:29:44;-3.10;99.90
13336;DHT22;6737;51.480;11.962;2022-12-17T06:32:28;-3.10;99.90
13336;DHT22;6737;51.480;11.962;2022-12-17T06:35:12;-3.10;99.90
13336;DHT22;6737;51.480;11.962;2022-12-17T06:37:58;-3.00;99.90
13336;DHT22;6737;51.480;11.962;2022-12-17T06:40:43;-3.00;99.90
13336;DHT22;6737;51.480;11.962;2022-12-17T06:43:27;-2.90;99.90
13336;DHT22;6737;51.480;11.962;2022-12-17T06:46:11;-3.00;99.90
13336;DHT22;6737;51.480;11.962;2022-12-17T06:48:55;-2.90;99.90
13336;DHT22;6737;51.480;11.962;2022-12-17T06:51:39;-2.90;99.90
13336;DHT22;6737;51.480;11.962;2022-12-17T06:54:23;-2.90;99.90
13336;DHT22;6737;51.480;11.962;2022-12-17T06:57:08;-2.90;99.90
13336;DHT22;6737;51.480;11.962;2022-12-17T06:59:52;-3.00;99.90
13336;DHT22;6737;51.480;11.962;2022-12-17T07:02:36;-3.00;99.90
13336;DHT22;6737;51.480;11.962;2022-12-17T07:05:21;-3.10;99.90
13336;DHT22;6737;51.480;11.962;2022-12-17T07:08:05;-3.10;99.90
13336;DHT22;6737;51.480;11.962;2022-12-17T07:10:49;-3.10;99.90
13336;DHT22;6737;51.480;11.962;2022-12-17T07:13:33;-3.00;99.90
13336;DHT22;6737;51.480;11.962;2022-12-17T07:16:17;-3.20;99.90
13336;DHT22;6737;51.480;11.962;2022-12-17T07:19:01;-3.10;99.90
13336;DHT22;6737;51.480;11.962;2022-12-17T07:21:59;-3.10;99.90
13336;DHT22;6737;51.480;11.962;2022-12-17T07:24:44;-3.10;99.90
13336;DHT22;6737;51.480;11.962;2022-12-17T07:27:28;-3.00;99.90
13336;DHT22;6737;51.480;11.962;2022-12-17T07:30:12;-3.00;99.90
13336;DHT22;6737;51.480;11.962;2022-12-17T07:32:58;-3.10;99.90
13336;DHT22;6737;51.480;11.962;2022-12-17T07:35:42;-3.20;99.90
13336;DHT22;6737;51.480;11.962;2022-12-17T07:38:28;-3.20;99.90
13336;DHT22;6737;51.480;11.962;2022-12-17T07:41:12;-3.20;99.90
13336;DHT22;6737;51.480;11.962;2022-12-17T07:43:57;-3.20;99.90
13336;DHT22;6737;51.480;11.962;2022-12-17T07:46:41;-3.30;99.90
13336;DHT22;6737;51.480;11.962;2022-12-17T07:49:25;-3.30;99.90
13336;DHT22;6737;51.480;11.962;2022-12-17T07:52:09;-3.40;99.90
13336;DHT22;6737;51.480;11.962;2022-12-17T07:54:53;-3.40;99.90
13336;DHT22;6737;51.480;11.962;2022-12-17T07:57:38;-3.40;99.90
13336;DHT22;6737;51.480;11.962;2022-12-17T08:00:22;-3.40;99.90
13336;DHT22;6737;51.480;11.962;2022-12-17T08:03:06;-3.40;99.90
13336;DHT22;6737;51.480;11.962;2022-12-17T08:05:50;-3.30;99.90
13336;DHT22;6737;51.480;11.962;2022-12-17T08:08:34;-3.30;99.90
13336;DHT22;6737;51.480;11.962;2022-12-17T08:11:19;-3.20;99.90
13336;DHT22;6737;51.480;11.962;2022-12-17T08:14:03;-3.20;99.90
13336;DHT22;6737;51.480;11.962;2022-12-17T08:16:47;-3.20;99.90
13336;DHT22;6737;51.480;11.962;2022-12-17T08:19:31;-3.10;99.90
13336;DHT22;6737;51.480;11.962;2022-12-17T08:22:15;-3.10;99.90
13336;DHT22;6737;51.480;11.962;2022-12-17T08:24:59;-3.00;99.90
13336;DHT22;6737;51.480;11.962;2022-12-17T08:27:44;-2.90;99.90
13336;DHT22;6737;51.480;11.962;2022-12-17T08:30:29;-2.90;99.90
13336;DHT22;6737;51.480;11.962;2022-12-17T08:33:13;-2.90;99.90
13336;DHT22;6737;51.480;11.962;2022-12-17T08:35:57;-2.80;99.90
13336;DHT22;6737;51.480;11.962;2022-12-17T08:38:42;-2.80;99.90
13336;DHT22;6737;51.480;11.962;2022-12-17T08:41:27;-2.70;99.90
13336;DHT22;6737;51.480;11.962;2022-12-17T08:44:11;-2.70;99.90
13336;DHT22;6737;51.480;11.962;2022-12-17T08:46:55;-2.80;99.90
13336;DHT22;6737;51.480;11.962;2022-12-17T08:49:39;-2.80;99.90
13336;DHT22;6737;51.480;11.962;2022-12-17T08:52:23;-2.90;99.90
13336;DHT22;6737;51.480;11.962;2022-12-17T08:55:08;-2.90;99.90
13336;DHT22;6737;51.480;11.962;2022-12-17T08:57:56;-2.90;99.90
13336;DHT22;6737;51.480;11.962;2022-12-17T09:00:42;-2.90;99.90
13336;DHT22;6737;51.480;11.962;2022-12-17T09:03:27;-2.80;99.90
13336;DHT22;6737;51.480;11.962;2022-12-17T09:06:11;-2.90;99.90
13336;DHT22;6737;51.480;11.962;2022-12-17T09:08:55;-2.90;99.90
13336;DHT22;6737;51.480;11.962;2022-12-17T09:11:39;-2.90;99.90
13336;DHT22;6737;51.480;11.962;2022-12-17T09:14:24;-2.90;99.90
13336;DHT22;6737;51.480;11.962;2022-12-17T09:17:09;-2.90;99.90
13336;DHT22;6737;51.480;11.962;2022-12-17T09:19:53;-3.00;99.90
13336;DHT22;6737;51.480;11.962;2022-12-17T09:22:37;-3.00;99.90
13336;DHT22;6737;51.480;11.962;2022-12-17T09:25:21;-2.90;99.90
13336;DHT22;6737;51.480;11.962;2022-12-17T09:28:06;-2.90;99.90
13336;DHT22;6737;51.480;11.962;2022-12-17T09:30:50;-2.80;99.90
13336;DHT22;6737;51.480;11.962;2022-12-17T09:33:35;-2.80;99.90
13336;DHT22;6737;51.480;11.962;2022-12-17T09:36:19;-2.90;99.90
13336;DHT22;6737;51.480;11.962;2022-12-17T09:39:03;-2.90;99.90
13336;DHT22;6737;51.480;11.962;2022-12-17T09:45:12;-2.70;99.90
13336;DHT22;6737;51.480;11.962;2022-12-17T09:48:16;-2.60;99.90
13336;DHT22;6737;51.480;11.962;2022-12-17T09:51:03;-2.50;99.90
13336;DHT22;6737;51.480;11.962;2022-12-17T09:53:52;-2.50;99.90
13336;DHT22;6737;51.480;11.962;2022-12-17T09:56:37;-2.50;99.90
13336;DHT22;6737;51.480;11.962;2022-12-17T09:59:28;-2.50;99.90
13336;DHT22;6737;51.480;11.962;2022-12-17T10:02:21;-2.60;99.90
13336;DHT22;6737;51.480;11.962;2022-12-17T10:05:13;-2.60;99.90
13336;DHT22;6737;51.480;11.962;2022-12-17T10:07:58;-2.60;99.90
13336;DHT22;6737;51.480;11.962;2022-12-17T10:10:44;-2.60;99.90
13336;DHT22;6737;51.480;11.962;2022-12-17T10:13:29;-2.60;99.90
13336;DHT22;6737;51.480;11.962;2022-12-17T10:19:33;-2.80;99.90
13336;DHT22;6737;51.480;11.962;2022-12-17T10:22:20;-3.00;99.90
13336;DHT22;6737;51.480;11.962;2022-12-17T10:25:08;-2.90;99.90
13336;DHT22;6737;51.480;11.962;2022-12-17T10:28:09;-2.90;99.90
13336;DHT22;6737;51.480;11.962;2022-12-17T10:30:55;-2.90;99.90
13336;DHT22;6737;51.480;11.962;2022-12-17T10:33:40;-2.90;99.90
13336;DHT22;6737;51.480;11.962;2022-12-17T10:36:26;-3.00;99.90
13336;DHT22;6737;51.480;11.962;2022-12-17T10:39:16;-3.00;99.90
13336;DHT22;6737;51.480;11.962;2022-12-17T10:42:01;-3.10;99.90
13336;DHT22;6737;51.480;11.962;2022-12-17T10:44:46;-3.10;99.90
13336;DHT22;6737;51.480;11.962;2022-12-17T10:47:32;-3.00;99.90
13336;DHT22;6737;51.480;11.962;2022-12-17T10:50:21;-3.00;99.90
13336;DHT22;6737;51.480;11.962;2022-12-17T10:53:18;-2.80;99.90
13336;DHT22;6737;51.480;11.962;2022-12-17T10:56:03;-2.80;99.90
13336;DHT22;6737;51.480;11.962;2022-12-17T10:58:52;-2.80;99.90
13336;DHT22;6737;51.480;11.962;2022-12-17T11:01:40;-2.70;99.90
13336;DHT22;6737;51.480;11.962;2022-12-17T11:04:35;-2.60;99.90
13336;DHT22;6737;51.480;11.962;2022-12-17T11:07:38;-2.50;99.90
13336;DHT22;6737;51.480;11.962;2022-12-17T11:10:29;-2.50;99.90
13336;DHT22;6737;51.480;11.962;2022-12-17T11:13:22;-2.40;99.90
13336;DHT22;6737;51.480;11.962;2022-12-17T11:16:34;-2.60;99.90
13336;DHT22;6737;51.480;11.962;2022-12-17T11:22:46;-2.30;99.90
13336;DHT22;6737;51.480;11.962;2022-12-17T11:26:00;-2.30;99.90
13336;DHT22;6737;51.480;11.962;2022-12-17T11:28:45;-2.30;99.90
13336;DHT22;6737;51.480;11.962;2022-12-17T11:35:02;-2.40;99.90
13336;DHT22;6737;51.480;11.962;2022-12-17T11:41:07;-2.40;99.90
13336;DHT22;6737;51.480;11.962;2022-12-17T11:47:51;-2.30;99.90
13336;DHT22;6737;51.480;11.962;2022-12-17T11:50:47;-2.30;99.90
13336;DHT22;6737;51.480;11.962;2022-12-17T11:56:45;-2.20;99.90
13336;DHT22;6737;51.480;11.962;2022-12-17T12:03:29;-2.20;99.90
13336;DHT22;6737;51.480;11.962;2022-12-17T12:09:45;-2.30;99.90
13336;DHT22;6737;51.480;11.962;2022-12-17T12:12:58;-2.40;99.90
13336;DHT22;6737;51.480;11.962;2022-12-17T12:16:07;-2.40;99.90
13336;DHT22;6737;51.480;11.962;2022-12-17T12:19:02;-2.50;99.90
13336;DHT22;6737;51.480;11.962;2022-12-17T12:22:08;-2.60;99.90
13336;DHT22;6737;51.480;11.962;2022-12-17T12:31:23;-2.50;99.90
13336;DHT22;6737;51.480;11.962;2022-12-17T12:34:16;-2.40;99.90
13336;DHT22;6737;51.480;11.962;2022-12-17T12:37:03;-2.30;99.90
13336;DHT22;6737;51.480;11.962;2022-12-17T12:45:43;-2.20;99.90
13336;DHT22;6737;51.480;11.962;2022-12-17T12:48:44;-2.40;99.90
13336;DHT22;6737;51.480;11.962;2022-12-17T12:51:32;-2.20;99.90
13336;DHT22;6737;51.480;11.962;2022-12-17T12:54:30;-2.40;99.90
13336;DHT22;6737;51.480;11.962;2022-12-17T12:57:28;-2.40;99.90
13336;DHT22;6737;51.480;11.962;2022-12-17T13:09:49;-2.70;99.90
13336;DHT22;6737;51.480;11.962;2022-12-17T13:24:48;-2.70;99.90
13336;DHT22;6737;51.480;11.962;2022-12-17T13:41:52;-2.80;99.90
13336;DHT22;6737;51.480;11.962;2022-12-17T13:44:23;-2.70;99.90
13336;DHT22;6737;51.480;11.962;2022-12-17T13:46:52;-2.70;99.90
13336;DHT22;6737;51.480;11.962;2022-12-17T13:49:28;-2.60;99.90
13336;DHT22;6737;51.480;11.962;2022-12-17T13:52:04;-2.60;99.90
13336;DHT22;6737;51.480;11.962;2022-12-17T13:54:30;-2.60;99.90
13336;DHT22;6737;51.480;11.962;2022-12-17T13:59:38;-2.50;99.90
13336;DHT22;6737;51.480;11.962;2022-12-17T14:02:04;-2.70;99.90
13336;DHT22;6737;51.480;11.962;2022-12-17T14:04:31;-2.60;99.90
13336;DHT22;6737;51.480;11.962;2022-12-17T14:06:59;-2.50;99.90
13336;DHT22;6737;51.480;11.962;2022-12-17T14:09:37;-2.50;99.90
13336;DHT22;6737;51.480;11.962;2022-12-17T14:12:04;-2.50;99.90
13336;DHT22;6737;51.480;11.962;2022-12-17T14:14:56;-2.40;99.90
13336;DHT22;6737;51.480;11.962;2022-12-17T14:17:28;-2.40;99.90
13336;DHT22;6737;51.480;11.962;2022-12-17T14:20:14;-2.40;99.90
13336;DHT22;6737;51.480;11.962;2022-12-17T14:22:43;-2.40;99.90
13336;DHT22;6737;51.480;11.962;2022-12-17T14:25:24;-2.40;99.90
13336;DHT22;6737;51.480;11.962;2022-12-17T14:28:21;-2.50;99.90
13336;DHT22;6737;51.480;11.962;2022-12-17T14:30:48;-2.40;99.90
13336;DHT22;6737;51.480;11.962;2022-12-17T14:33:31;-2.40;99.90
13336;DHT22;6737;51.480;11.962;2022-12-17T14:36:08;-2.30;99.90
13336;DHT22;6737;51.480;11.962;2022-12-17T14:38:35;-2.30;99.90
13336;DHT22;6737;51.480;11.962;2022-12-17T14:41:25;-2.20;99.90
13336;DHT22;6737;51.480;11.962;2022-12-17T14:44:20;-2.20;99.90
13336;DHT22;6737;51.480;11.962;2022-12-17T14:46:47;-2.20;99.90
13336;DHT22;6737;51.480;11.962;2022-12-17T14:49:20;-2.30;99.90
13336;DHT22;6737;51.480;11.962;2022-12-17T14:51:48;-2.30;99.90
13336;DHT22;6737;51.480;11.962;2022-12-17T14:56:55;-2.30;99.90
13336;DHT22;6737;51.480;11.962;2022-12-17T14:59:24;-2.30;99.90
13336;DHT22;6737;51.480;11.962;2022-12-17T15:01:52;-2.30;99.90
13336;DHT22;6737;51.480;11.962;2022-12-17T15:04:18;-2.30;99.90
13336;DHT22;6737;51.480;11.962;2022-12-17T15:06:44;-2.30;99.90
13336;DHT22;6737;51.480;11.962;2022-12-17T15:09:11;-2.30;99.90
13336;DHT22;6737;51.480;11.962;2022-12-17T15:11:37;-2.30;99.90
13336;DHT22;6737;51.480;11.962;2022-12-17T15:14:03;-2.30;99.90
13336;DHT22;6737;51.480;11.962;2022-12-17T15:16:29;-2.20;99.90
13336;DHT22;6737;51.480;11.962;2022-12-17T15:18:55;-2.20;99.90
13336;DHT22;6737;51.480;11.962;2022-12-17T15:21:22;-2.10;99.90
13336;DHT22;6737;51.480;11.962;2022-12-17T15:23:48;-2.20;99.90
13336;DHT22;6737;51.480;11.962;2022-12-17T15:26:14;-2.20;99.90
13336;DHT22;6737;51.480;11.962;2022-12-17T15:28:43;-2.20;99.90
13336;DHT22;6737;51.480;11.962;2022-12-17T15:31:11;-2.30;99.90
13336;DHT22;6737;51.480;11.962;2022-12-17T15:33:38;-2.40;99.90
13336;DHT22;6737;51.480;11.962;2022-12-17T15:36:04;-2.40;99.90
13336;DHT22;6737;51.480;11.962;2022-12-17T15:38:29;-2.40;99.90
13336;DHT22;6737;51.480;11.962;2022-12-17T15:40:59;-2.50;99.90
13336;DHT22;6737;51.480;11.962;2022-12-17T15:43:25;-2.40;99.90
13336;DHT22;6737;51.480;11.962;2022-12-17T15:45:51;-2.40;99.90
13336;DHT22;6737;51.480;11.962;2022-12-17T15:48:21;-2.40;99.90
13336;DHT22;6737;51.480;11.962;2022-12-17T15:50:50;-2.40;99.90
13336;DHT22;6737;51.480;11.962;2022-12-17T15:53:16;-2.40;99.90
13336;DHT22;6737;51.480;11.962;2022-12-17T15:55:42;-2.40;99.90
13336;DHT22;6737;51.480;11.962;2022-12-17T15:58:08;-2.50;99.90
13336;DHT22;6737;51.480;11.962;2022-12-17T16:00:36;-2.50;99.90
13336;DHT22;6737;51.480;11.962;2022-12-17T16:03:01;-2.40;99.90
13336;DHT22;6737;51.480;11.962;2022-12-17T16:05:27;-2.30;99.90
13336;DHT22;6737;51.480;11.962;2022-12-17T16:07:53;-2.20;99.90
13336;DHT22;6737;51.480;11.962;2022-12-17T16:10:23;-2.20;99.90
13336;DHT22;6737;51.480;11.962;2022-12-17T16:12:49;-2.20;99.90
13336;DHT22;6737;51.480;11.962;2022-12-17T16:15:14;-2.30;99.90
13336;DHT22;6737;51.480;11.962;2022-12-17T16:17:40;-2.40;99.90
13336;DHT22;6737;51.480;11.962;2022-12-17T16:20:07;-2.40;99.90
13336;DHT22;6737;51.480;11.962;2022-12-17T16:22:33;-2.40;99.90
13336;DHT22;6737;51.480;11.962;2022-12-17T16:24:58;-2.40;99.90
13336;DHT22;6737;51.480;11.962;2022-12-17T16:27:24;-2.50;99.90
13336;DHT22;6737;51.480;11.962;2022-12-17T16:29:50;-2.50;99.90
13336;DHT22;6737;51.480;11.962;2022-12-17T16:32:16;-2.50;99.90
13336;DHT22;6737;51.480;11.962;2022-12-17T16:34:42;-2.50;99.90
13336;DHT22;6737;51.480;11.962;2022-12-17T16:37:08;-2.50;99.90
13336;DHT22;6737;51.480;11.962;2022-12-17T16:39:35;-2.70;99.90
13336;DHT22;6737;51.480;11.962;2022-12-17T16:42:01;-2.80;99.90
13336;DHT22;6737;51.480;11.962;2022-12-17T16:44:26;-2.80;99.90
13336;DHT22;6737;51.480;11.962;2022-12-17T16:46:52;-2.70;99.90
13336;DHT22;6737;51.480;11.962;2022-12-17T16:49:20;-2.70;99.90
13336;DHT22;6737;51.480;11.962;2022-12-17T16:51:50;-2.70;99.90
13336;DHT22;6737;51.480;11.962;2022-12-17T16:54:23;-2.70;99.90
13336;DHT22;6737;51.480;11.962;2022-12-17T16:56:50;-2.70;99.90
13336;DHT22;6737;51.480;11.962;2022-12-17T16:59:17;-2.70;99.90
13336;DHT22;6737;51.480;11.962;2022-12-17T17:01:46;-2.90;99.90
13336;DHT22;6737;51.480;11.962;2022-12-17T17:04:14;-2.90;99.90
13336;DHT22;6737;51.480;11.962;2022-12-17T17:06:42;-2.80;99.90
13336;DHT22;6737;51.480;11.962;2022-12-17T17:09:10;-2.70;99.90
13336;DHT22;6737;51.480;11.962;2022-12-17T17:11:36;-2.70;99.90
13336;DHT22;6737;51.480;11.962;2022-12-17T17:14:03;-2.70;99.90
13336;DHT22;6737;51.480;11.962;2022-12-17T17:16:29;-2.70;99.90
13336;DHT22;6737;51.480;11.962;2022-12-17T17:18:55;-2.70;99.90
13336;DHT22;6737;51.480;11.962;2022-12-17T17:21:27;-2.70;99.90
13336;DHT22;6737;51.480;11.962;2022-12-17T17:23:58;-2.70;99.90
13336;DHT22;6737;51.480;11.962;2022-12-17T17:26:27;-2.70;99.90
13336;DHT22;6737;51.480;11.962;2022-12-17T17:28:53;-2.70;99.90
13336;DHT22;6737;51.480;11.962;2022-12-17T17:31:20;-3.00;99.90
13336;DHT22;6737;51.480;11.962;2022-12-17T17:33:48;-3.00;99.90
13336;DHT22;6737;51.480;11.962;2022-12-17T17:36:26;-3.10;99.90
13336;DHT22;6737;51.480;11.962;2022-12-17T17:38:53;-3.10;99.90
13336;DHT22;6737;51.480;11.962;2022-12-17T17:41:21;-3.00;99.90
13336;DHT22;6737;51.480;11.962;2022-12-17T17:43:53;-3.00;99.90
13336;DHT22;6737;51.480;11.962;2022-12-17T17:46:19;-3.00;99.90
13336;DHT22;6737;51.480;11.962;2022-12-17T17:48:46;-2.90;99.90
13336;DHT22;6737;51.480;11.962;2022-12-17T17:53:44;-3.00;99.90
13336;DHT22;6737;51.480;11.962;2022-12-17T17:56:12;-3.00;99.90
13336;DHT22;6737;51.480;11.962;2022-12-17T17:58:44;-3.00;99.90
13336;DHT22;6737;51.480;11.962;2022-12-17T18:01:12;-3.10;99.90
13336;DHT22;6737;51.480;11.962;2022-12-17T18:03:38;-3.20;99.90
13336;DHT22;6737;51.480;11.962;2022-12-17T18:06:08;-3.10;99.90
13336;DHT22;6737;51.480;11.962;2022-12-17T18:08:35;-3.10;99.90
13336;DHT22;6737;51.480;11.962;2022-12-17T18:11:03;-3.20;99.90
13336;DHT22;6737;51.480;11.962;2022-12-17T18:13:29;-3.10;99.90
13336;DHT22;6737;51.480;11.962;2022-12-17T18:16:13;-3.20;99.90
13336;DHT22;6737;51.480;11.962;2022-12-17T18:18:39;-3.10;99.90
13336;DHT22;6737;51.480;11.962;2022-12-17T18:21:13;-3.10;99.90
13336;DHT22;6737;51.480;11.962;2022-12-17T18:23:40;-3.10;99.90
13336;DHT22;6737;51.480;11.962;2022-12-17T18:26:14;-3.00;99.90
13336;DHT22;6737;51.480;11.962;2022-12-17T18:28:42;-3.00;99.90
13336;DHT22;6737;51.480;11.962;2022-12-17T18:31:22;-3.00;99.90
13336;DHT22;6737;51.480;11.962;2022-12-17T18:34:00;-3.00;99.90
13336;DHT22;6737;51.480;11.962;2022-12-17T18:36:29;-3.00;99.90